Terminal Aerodrome Forecast
Issued by NWS

Home | Current Version | Previous Version | Text Only | Print | Product List | Glossary On
Versions: 1 2 3 4 5 6 7 8 9 10 11 12 13
000
FTUS44 KJAN 181749
TAFGTR
TAF
KGTR 181749Z 1818/1918 17015G25KT P6SM OVC025
     FM182300 27015G27KT P6SM VCSH BKN025 OVC030
     FM190200 32014G23KT P6SM OVC020
     FM190500 34012G20KT P6SM BKN035
     FM190900 32009KT P6SM SKC=

USA.gov is the U.S. government's official web portal to all federal, state and local government web resources and services.